Main page
METAR-TAF:

METAR-TAF

Airports :

Funchal, Madeira, Portugal

Madeira Airport

latitude: 32-41-52N, longitude: 016-46-28W, elevation: 59 m

Current weather observation

The report was made 22 minutes ago, at 11:30 UTC
Wind 10 kt from variable directions
Temperature 25°C
Humidity 74%
Pressure 1018 hPa
Visibility 10 km or more
Few clouds at a height of 1800 ft

METAR: LPMA 211130Z VRB10KT 9999 FEW018 25/20 Q1018

Time: 12:52 (11:52 UTC)

Forecast

The report was made 52 minutes ago, at 11:00 UTC
Forecast valid from 21 at 12 UTC to 22 at 12 UTC
Wind 5 kt from variable directions
Visibility 10 km or more
Few clouds at a height of 1800 ft
Temporary
from 21 at 12 UTC to 21 at 18 UTC
Wind 8 kt from the South/Southwest

TAF: LPMA 211100Z 2112/2212 VRB05KT 9999 FEW018 TEMPO 2112/2118 20008KT

Weather observations and forecasts of more than 4000 airports (METAR and TAF reports).

The available stations are represented by yellow and red dots on the map.

Hover mouse over dot to see the name of the station.

Then click to see weather observations and forecasts.

To change the map : click on the green buttons with a black cross to zoom in, on the green button with a dash to zoom out, or on the green arrows for adjacent maps.


METAR-TAF: